Time;durP1;ratioP1;P1;durP2;ratioP2;P2;SDS_P1;SDS_P2;PMS_P1;PMS_P2;Temp;Humidity;BMP_temperature;BMP_pressure;BME280_temperature;BME280_humidity;BME280_pressure;Samples;Min_cycle;Max_cycle;Signal;HPM_P1;HPM_P2
2023/04/16 00:02:20;;;;;;;12.30;4.90;;;8.80;55.50;;;;;;5036058;28;20185;-90
2023/04/16 00:04:56;;;;;;;9.83;5.17;;;8.90;52.40;;;;;;5026189;28;20587;-88
2023/04/16 00:07:21;;;;;;;9.93;3.57;;;8.70;52.10;;;;;;5022698;28;20300;-90
2023/04/16 00:09:47;;;;;;;10.30;4.50;;;8.60;49.70;;;;;;5021176;28;20279;-88
2023/04/16 00:12:13;;;;;;;14.60;6.03;;;8.70;53.40;;;;;;5020796;28;20208;-89
2023/04/16 00:14:41;;;;;;;10.00;5.47;;;8.70;55.80;;;;;;5021254;28;20189;-88
2023/04/16 00:17:07;;;;;;;13.50;6.10;;;8.80;55.10;;;;;;5024662;28;20201;-88
2023/04/16 00:19:35;;;;;;;11.47;5.50;;;8.90;54.50;;;;;;5032247;28;20189;-89
2023/04/16 00:22:01;;;;;;;10.43;5.70;;;8.90;53.20;;;;;;5027471;28;20249;-87
2023/04/16 00:24:27;;;;;;;11.17;6.40;;;9.00;53.70;;;;;;5023599;28;20220;-88
2023/04/16 00:26:52;;;;;;;11.83;5.47;;;9.10;54.30;;;;;;5022325;28;20190;-88
2023/04/16 00:29:18;;;;;;;16.40;7.23;;;8.90;55.90;;;;;;5019260;28;20278;-88
2023/04/16 00:31:44;;;;;;;11.30;6.73;;;8.70;58.10;;;;;;5019368;28;20669;-89
2023/04/16 00:34:10;;;;;;;9.83;7.30;;;8.80;60.60;;;;;;5021073;28;20244;-88
2023/04/16 00:36:35;;;;;;;14.13;6.83;;;8.80;61.00;;;;;;5019476;28;20540;-88
2023/04/16 00:39:01;;;;;;;11.83;6.57;;;8.80;62.10;;;;;;5021285;28;20174;-88
2023/04/16 00:41:27;;;;;;;7.77;5.40;;;8.90;59.90;;;;;;5018462;28;20186;-88
2023/04/16 00:43:53;;;;;;;13.07;5.50;;;8.90;56.90;;;;;;5019023;28;20645;-87
2023/04/16 00:46:22;;;;;;;8.07;5.43;;;9.10;55.80;;;;;;5017600;28;20201;-88
2023/04/16 00:48:49;;;;;;;11.10;4.80;;;8.80;52.40;;;;;;5017435;28;20240;-88
2023/04/16 00:51:18;;;;;;;7.80;5.17;;;8.80;51.10;;;;;;5018257;28;20177;-88
2023/04/16 00:53:45;;;;;;;7.50;3.57;;;8.80;51.10;;;;;;5017947;28;20185;-86
2023/04/16 00:56:11;;;;;;;10.47;3.70;;;8.80;42.50;;;;;;5027449;28;20182;-87
2023/04/16 00:58:37;;;;;;;9.20;3.47;;;8.80;45.20;;;;;;5024381;28;20181;-89
2023/04/16 01:01:09;;;;;;;7.10;3.50;;;8.80;45.20;;;;;;5019048;28;20639;-90
2023/04/16 01:03:42;;;;;;;5.77;3.43;;;8.80;42.40;;;;;;5030882;28;20190;-86
2023/04/16 01:06:08;;;;;;;6.27;2.80;;;8.70;42.50;;;;;;5025182;28;20177;-88
2023/04/16 01:08:35;;;;;;;6.37;2.87;;;8.70;40.00;;;;;;5036647;28;20270;-88
2023/04/16 01:11:01;;;;;;;6.03;2.70;;;8.60;39.10;;;;;;5018251;28;20657;-89
2023/04/16 01:13:26;;;;;;;7.33;2.80;;;8.50;39.30;;;;;;5017796;28;20192;-88
2023/04/16 01:15:55;;;;;;;3.43;2.50;;;8.50;40.10;;;;;;5027123;28;20225;-88
2023/04/16 01:18:22;;;;;;;5.33;2.90;;;8.60;40.70;;;;;;5032953;28;20181;-88
2023/04/16 01:20:50;;;;;;;8.20;3.40;;;8.60;40.30;;;;;;5039242;28;20166;-86
2023/04/16 01:23:20;;;;;;;4.87;3.20;;;8.70;41.50;;;;;;5022204;28;20192;-88
2023/04/16 01:26:07;;;;;;;7.93;3.30;;;8.70;41.50;;;;;;5027874;28;20181;-89
2023/04/16 01:28:36;;;;;;;6.27;3.40;;;8.70;42.40;;;;;;5019951;28;20673;-88
2023/04/16 01:31:02;;;;;;;10.67;3.73;;;8.80;42.40;;;;;;5019576;28;20308;-89
2023/04/16 01:33:28;;;;;;;9.43;3.63;;;8.80;42.90;;;;;;5019762;28;20234;-88
2023/04/16 01:36:00;;;;;;;6.50;4.00;;;8.80;44.10;;;;;;5021072;28;20288;-88
2023/04/16 01:38:26;;;;;;;8.30;4.10;;;8.80;44.70;;;;;;5023855;28;20180;-88
2023/04/16 01:40:56;;;;;;;8.60;3.67;;;8.80;46.10;;;;;;5039567;28;20213;-87
2023/04/16 01:43:25;;;;;;;7.73;3.87;;;8.90;44.00;;;;;;5034548;28;20197;-88
2023/04/16 01:45:57;;;;;;;8.43;3.70;;;8.90;41.10;;;;;;5030155;28;20652;-86
2023/04/16 01:48:23;;;;;;;5.97;3.63;;;9.00;40.00;;;;;;5043439;28;20205;-86
2023/04/16 01:50:49;;;;;;;6.17;3.23;;;8.90;40.60;;;;;;5044382;28;20181;-87
2023/04/16 01:53:14;;;;;;;8.07;3.53;;;8.90;40.90;;;;;;5041819;28;20209;-88
2023/04/16 01:55:46;;;;;;;5.23;3.60;;;8.90;40.20;;;;;;5028773;28;20189;-88
2023/04/16 01:58:13;;;;;;;4.80;3.00;;;8.80;41.20;;;;;;5028441;28;20185;-89
2023/04/16 02:00:40;;;;;;;5.10;3.10;;;8.80;41.70;;;;;;5036313;28;20220;-88
2023/04/16 02:03:06;;;;;;;5.63;3.70;;;8.90;40.80;;;;;;5026212;28;20189;-89
2023/04/16 02:05:32;;;;;;;6.80;3.87;;;8.90;42.80;;;;;;5021718;28;20272;-89
2023/04/16 02:07:59;;;;;;;7.10;3.87;;;8.90;42.80;;;;;;5020767;28;20308;-88
2023/04/16 02:10:25;;;;;;;9.27;4.27;;;9.00;42.40;;;;;;5020608;28;20209;-88
2023/04/16 02:12:50;;;;;;;6.50;3.30;;;9.00;40.40;;;;;;5030473;28;20212;-87
2023/04/16 02:15:24;;;;;;;5.43;3.13;;;9.00;42.50;;;;;;5021174;28;20213;-88
2023/04/16 02:17:55;;;;;;;6.10;3.40;;;8.90;43.90;;;;;;5006534;28;20220;-87
2023/04/16 02:20:21;;;;;;;6.53;3.40;;;9.10;44.40;;;;;;5020499;28;20534;-87
2023/04/16 02:22:49;;;;;;;6.43;3.17;;;9.00;43.80;;;;;;5019995;28;21018;-87
2023/04/16 02:25:15;;;;;;;5.10;2.87;;;9.00;42.90;;;;;;5019682;28;20252;-87
2023/04/16 02:27:40;;;;;;;8.20;3.47;;;8.90;44.30;;;;;;5020250;28;20296;-89
2023/04/16 02:30:09;;;;;;;4.87;3.20;;;9.10;44.80;;;;;;5020457;28;20763;-86
2023/04/16 02:32:35;;;;;;;5.00;2.70;;;8.90;47.40;;;;;;5020221;28;20189;-88
2023/04/16 02:35:02;;;;;;;7.47;3.23;;;8.80;50.10;;;;;;5019958;28;20312;-87
2023/04/16 02:37:29;;;;;;;6.13;2.80;;;8.80;52.50;;;;;;5019914;28;20174;-87
2023/04/16 02:39:54;;;;;;;7.50;3.03;;;8.80;54.70;;;;;;5019925;28;20178;-87
2023/04/16 02:42:20;;;;;;;9.37;2.70;;;8.80;55.60;;;;;;5020380;28;20284;-88
2023/04/16 02:44:46;;;;;;;6.17;3.00;;;8.80;55.00;;;;;;5020040;28;20181;-87
2023/04/16 02:47:14;;;;;;;9.13;3.33;;;8.80;56.60;;;;;;5019382;28;20193;-87
2023/04/16 02:49:42;;;;;;;5.20;3.20;;;9.10;57.00;;;;;;5019676;28;20189;-88
2023/04/16 02:52:08;;;;;;;7.10;3.27;;;9.00;54.60;;;;;;5036162;28;20182;-88
2023/04/16 02:54:34;;;;;;;8.00;3.17;;;9.10;51.90;;;;;;5025128;28;20200;-86
2023/04/16 02:57:01;;;;;;;7.57;3.60;;;9.10;53.20;;;;;;5031761;28;20285;-87
2023/04/16 02:59:32;;;;;;;8.10;3.50;;;9.10;52.30;;;;;;5004043;28;20193;-87
2023/04/16 03:01:58;;;;;;;5.87;3.37;;;9.10;51.10;;;;;;5019695;28;20622;-86
2023/04/16 03:04:24;;;;;;;8.10;3.30;;;9.30;51.30;;;;;;5018717;28;20189;-87
2023/04/16 03:06:49;;;;;;;6.27;3.03;;;9.20;49.40;;;;;;5020978;28;20228;-86
2023/04/16 03:09:16;;;;;;;3.73;3.00;;;9.20;49.20;;;;;;5039094;28;20217;-88
2023/04/16 03:11:41;;;;;;;6.17;3.10;;;9.20;51.30;;;;;;5021685;28;20178;-89
2023/04/16 03:14:07;;;;;;;7.10;2.90;;;9.20;53.10;;;;;;5019450;28;20193;-87
2023/04/16 03:16:35;;;;;;;7.60;2.93;;;9.20;51.50;;;;;;5019115;28;20268;-90
2023/04/16 03:19:01;;;;;;;6.63;2.83;;;9.10;54.30;;;;;;5020519;28;20649;-87
2023/04/16 03:21:26;;;;;;;6.37;2.63;;;9.00;55.90;;;;;;5019450;28;20173;-89
2023/04/16 03:23:52;;;;;;;8.17;2.63;;;9.00;57.50;;;;;;5019918;28;20537;-88
2023/04/16 03:26:18;;;;;;;7.93;2.60;;;9.00;58.10;;;;;;5020036;28;20201;-86
2023/04/16 03:28:44;;;;;;;10.63;2.60;;;9.00;59.00;;;;;;5041001;28;20209;-87
2023/04/16 03:31:10;;;;;;;5.50;2.30;;;9.00;59.70;;;;;;5021208;28;20185;-88
2023/04/16 03:33:36;;;;;;;5.10;2.07;;;8.90;63.50;;;;;;5028729;28;20225;-88
2023/04/16 03:36:02;;;;;;;7.90;2.67;;;9.00;65.20;;;;;;5040362;28;20182;-86
2023/04/16 03:38:28;;;;;;;7.07;2.13;;;9.10;62.10;;;;;;5040297;28;20201;-89
2023/04/16 03:40:56;;;;;;;5.27;2.00;;;9.20;61.70;;;;;;5025170;28;20196;-88
2023/04/16 03:43:22;;;;;;;7.00;1.93;;;9.00;63.30;;;;;;5021000;28;20194;-87
2023/04/16 03:45:48;;;;;;;5.93;2.17;;;9.10;60.90;;;;;;5029742;28;20204;-87
2023/04/16 03:48:14;;;;;;;7.70;2.30;;;9.00;61.70;;;;;;5041148;28;20232;-85
2023/04/16 03:50:45;;;;;;;5.70;2.20;;;9.10;59.80;;;;;;5041370;28;20190;-87
2023/04/16 03:53:14;;;;;;;9.10;2.30;;;9.10;59.70;;;;;;5038613;28;20177;-86
2023/04/16 03:55:40;;;;;;;4.40;2.10;;;9.00;59.50;;;;;;5034341;28;20178;-87
2023/04/16 03:58:06;;;;;;;6.97;2.27;;;9.00;61.70;;;;;;5029584;28;20700;-87
2023/04/16 04:00:32;;;;;;;6.40;2.13;;;9.10;61.40;;;;;;5025543;28;20189;-87
2023/04/16 04:02:57;;;;;;;5.30;2.80;;;9.00;60.00;;;;;;5056079;28;20173;-87
2023/04/16 04:05:26;;;;;;;8.47;2.67;;;9.00;60.50;;;;;;5040004;28;20167;-88
2023/04/16 04:07:54;;;;;;;4.80;2.20;;;8.90;62.10;;;;;;5035845;28;20756;-88
2023/04/16 04:10:22;;;;;;;6.00;2.40;;;9.00;61.60;;;;;;5021334;28;20181;-88
2023/04/16 04:12:47;;;;;;;5.37;2.47;;;8.90;61.90;;;;;;5021803;28;20608;-87
2023/04/16 04:15:13;;;;;;;5.63;2.30;;;9.00;62.20;;;;;;5019095;28;20217;-87
2023/04/16 04:17:40;;;;;;;4.07;2.20;;;9.10;60.30;;;;;;5020592;28;20252;-86
2023/04/16 04:20:06;;;;;;;4.10;2.40;;;9.30;57.80;;;;;;5020122;28;20186;-88
2023/04/16 04:22:34;;;;;;;5.63;2.80;;;9.10;57.90;;;;;;5019642;28;20649;-87
2023/04/16 04:25:00;;;;;;;3.67;2.10;;;9.30;57.50;;;;;;5020305;28;20655;-87
2023/04/16 04:27:26;;;;;;;6.50;2.57;;;9.00;58.70;;;;;;5019419;28;20278;-87
2023/04/16 04:29:52;;;;;;;5.57;2.53;;;8.90;63.10;;;;;;5019402;28;20181;-87
2023/04/16 04:32:17;;;;;;;5.37;2.70;;;8.80;67.20;;;;;;5036773;28;20165;-87
2023/04/16 04:34:43;;;;;;;6.77;2.90;;;8.70;75.40;;;;;;5039534;28;20181;-88
2023/04/16 04:37:10;;;;;;;5.87;3.13;;;8.80;77.40;;;;;;5041198;28;20181;-89
2023/04/16 04:39:38;;;;;;;7.23;3.33;;;9.00;75.50;;;;;;5033354;28;20257;-86
2023/04/16 04:42:13;;;;;;;9.73;3.23;;;8.90;74.40;;;;;;5038593;28;20188;-85
2023/04/16 04:44:38;;;;;;;5.20;2.67;;;8.90;76.20;;;;;;5037216;28;20165;-86
2023/04/16 04:47:04;;;;;;;7.27;2.93;;;8.80;79.40;;;;;;5028477;28;20288;-89
2023/04/16 04:49:30;;;;;;;8.30;2.90;;;8.90;81.60;;;;;;5033264;28;20181;-87
2023/04/16 04:51:55;;;;;;;6.93;2.60;;;8.80;84.50;;;;;;5029219;28;20185;-88
2023/04/16 04:54:21;;;;;;;6.77;2.67;;;8.80;84.50;;;;;;5021742;28;20525;-87
2023/04/16 04:56:47;;;;;;;9.17;3.30;;;8.80;82.80;;;;;;5012651;28;20190;-88
2023/04/16 04:59:13;;;;;;;6.50;2.90;;;8.80;83.70;;;;;;5031476;28;20182;-88
2023/04/16 05:01:40;;;;;;;6.47;3.00;;;8.90;84.30;;;;;;5020525;28;20190;-87
2023/04/16 05:04:06;;;;;;;6.40;2.93;;;8.90;82.90;;;;;;5018233;28;20181;-88
2023/04/16 05:06:32;;;;;;;10.90;3.07;;;8.80;81.50;;;;;;5036018;28;20174;-87
2023/04/16 05:08:57;;;;;;;5.83;2.40;;;8.80;84.40;;;;;;5018107;28;20217;-87
2023/04/16 05:11:23;;;;;;;11.77;2.70;;;8.80;83.10;;;;;;5018376;28;20182;-87
2023/04/16 05:13:49;;;;;;;7.47;2.33;;;8.90;82.20;;;;;;5019022;28;20194;-88
2023/04/16 05:16:15;;;;;;;8.23;2.60;;;8.90;81.10;;;;;;5018466;28;20201;-88
2023/04/16 05:18:40;;;;;;;7.13;2.20;;;9.00;80.90;;;;;;5021555;28;20189;-88
2023/04/16 05:21:06;;;;;;;11.63;2.43;;;9.00;79.90;;;;;;5030052;28;20181;-87
2023/04/16 05:23:32;;;;;;;5.70;1.73;;;9.00;79.60;;;;;;5043605;28;20186;-86
2023/04/16 05:26:00;;;;;;;6.40;2.07;;;8.90;79.90;;;;;;5051839;28;20174;-87
2023/04/16 05:28:26;;;;;;;5.73;2.00;;;9.00;79.50;;;;;;5021108;28;20213;-87
2023/04/16 05:30:51;;;;;;;6.73;1.90;;;9.00;81.20;;;;;;5021451;28;20765;-88
2023/04/16 05:33:17;;;;;;;7.87;1.77;;;8.90;80.00;;;;;;5020831;28;20196;-88
2023/04/16 05:35:50;;;;;;;8.70;2.00;;;8.80;81.50;;;;;;5022372;28;20162;-88
2023/04/16 05:38:23;;;;;;;5.63;2.10;;;8.90;82.50;;;;;;5023924;28;20303;-90
2023/04/16 05:40:54;;;;;;;8.07;2.43;;;9.00;82.00;;;;;;5047697;28;20181;-86
2023/04/16 05:43:23;;;;;;;7.53;2.27;;;9.00;79.50;;;;;;5042796;28;20630;-89
2023/04/16 05:45:48;;;;;;;6.07;2.33;;;9.10;77.30;;;;;;5024191;28;20209;-88
2023/04/16 05:48:14;;;;;;;6.30;2.33;;;9.00;75.60;;;;;;5041374;28;20221;-88
2023/04/16 05:50:40;;;;;;;7.60;2.30;;;9.00;77.40;;;;;;5024220;28;20182;-87
2023/04/16 05:53:07;;;;;;;8.23;2.20;;;8.90;78.80;;;;;;5023338;28;20223;-88
2023/04/16 05:55:37;;;;;;;4.73;1.90;;;9.00;80.30;;;;;;5029071;28;20251;-88
2023/04/16 05:58:05;;;;;;;8.37;2.37;;;8.90;79.80;;;;;;5022942;28;20189;-88
2023/04/16 06:00:36;;;;;;;7.37;2.77;;;8.90;82.10;;;;;;5023018;28;20212;-87
2023/04/16 06:03:04;;;;;;;6.90;2.50;;;9.00;79.70;;;;;;5023455;28;20186;-89
2023/04/16 06:05:30;;;;;;;9.63;2.30;;;9.00;79.10;;;;;;5025768;28;20190;-87
2023/04/16 06:07:56;;;;;;;6.43;2.40;;;9.00;79.10;;;;;;5037807;28;20226;-89
2023/04/16 06:10:22;;;;;;;8.10;2.63;;;8.90;83.00;;;;;;5027039;28;20212;-89
2023/04/16 06:12:50;;;;;;;6.37;2.27;;;8.90;82.60;;;;;;5022471;28;20265;-88
2023/04/16 06:15:15;;;;;;;7.10;2.60;;;8.80;85.70;;;;;;5021102;28;20177;-88
2023/04/16 06:17:41;;;;;;;7.70;2.67;;;8.90;85.40;;;;;;5022178;28;20208;-88
2023/04/16 06:20:09;;;;;;;6.10;2.80;;;8.80;84.20;;;;;;5034233;28;20268;-87
2023/04/16 06:22:39;;;;;;;6.03;2.47;;;8.70;90.70;;;;;;5041547;28;20237;-86
2023/04/16 06:25:06;;;;;;;7.23;3.10;;;8.70;92.70;;;;;;5059413;28;20215;-87
2023/04/16 06:27:32;;;;;;;6.53;3.00;;;8.60;94.80;;;;;;5027147;28;20237;-89
2023/04/16 06:29:59;;;;;;;7.37;2.83;;;8.60;95.90;;;;;;5022153;28;20212;-88
2023/04/16 06:32:25;;;;;;;7.90;3.20;;;8.60;95.70;;;;;;5035006;28;20182;-87
2023/04/16 06:34:51;;;;;;;7.27;3.10;;;8.60;96.40;;;;;;5031155;28;20607;-87
2023/04/16 06:37:17;;;;;;;8.37;3.20;;;8.70;96.70;;;;;;5025727;28;20193;-88
2023/04/16 06:39:50;;;;;;;5.87;2.97;;;8.80;96.30;;;;;;5024356;28;20261;-88
2023/04/16 06:42:17;;;;;;;7.57;3.47;;;8.80;94.10;;;;;;5024770;28;20568;-88
2023/04/16 06:44:53;;;;;;;8.30;3.57;;;8.80;93.10;;;;;;5040900;28;20219;-87
2023/04/16 06:47:19;;;;;;;7.63;2.97;;;8.80;92.10;;;;;;5052074;28;20212;-88
2023/04/16 06:49:46;;;;;;;7.73;3.80;;;8.80;92.60;;;;;;5027961;28;20216;-89
2023/04/16 06:52:12;;;;;;;8.50;4.43;;;8.80;92.20;;;;;;5026546;28;20181;-87
2023/04/16 06:54:39;;;;;;;9.17;4.87;;;9.00;91.70;;;;;;5043046;28;20190;-88
2023/04/16 06:57:08;;;;;;;10.53;4.57;;;9.00;91.10;;;;;;5027211;28;20660;-88
2023/04/16 06:59:37;;;;;;;8.10;4.40;;;8.90;90.20;;;;;;5027928;28;20178;-90
2023/04/16 07:02:02;;;;;;;11.13;5.47;;;8.90;90.90;;;;;;5031348;28;20201;-87
2023/04/16 07:04:33;;;;;;;10.83;4.83;;;9.00;91.10;;;;;;5032746;28;20186;-89
2023/04/16 07:06:59;;;;;;;10.83;5.37;;;8.90;90.90;;;;;;5035500;28;20173;-86
2023/04/16 07:09:34;;;;;;;9.73;6.30;;;9.00;90.60;;;;;;5040571;28;20217;-86
2023/04/16 07:12:03;;;;;;;12.00;5.30;;;9.00;91.40;;;;;;5038268;28;20165;-86
2023/04/16 07:14:29;;;;;;;7.47;4.73;;;8.90;92.00;;;;;;5041282;28;20193;-87
2023/04/16 07:17:10;;;;;;;8.40;4.63;;;8.80;93.40;;;;;;5041235;28;20216;-87
2023/04/16 07:19:36;;;;;;;9.23;5.53;;;8.80;96.30;;;;;;5036799;28;20182;-88
2023/04/16 07:22:07;;;;;;;13.20;5.40;;;8.70;98.10;;;;;;5030966;28;20232;-88
2023/04/16 07:24:34;;;;;;;10.73;6.00;;;8.70;98.40;;;;;;5006959;28;20269;-87
2023/04/16 07:27:00;;;;;;;10.23;5.40;;;8.70;98.90;;;;;;5020774;28;20186;-87
2023/04/16 07:29:26;;;;;;;13.23;6.03;;;8.70;99.10;;;;;;5020661;28;20223;-88
2023/04/16 07:32:07;;;;;;;10.07;5.57;;;8.80;99.60;;;;;;5020774;28;20205;-86
2023/04/16 07:34:32;;;;;;;22.67;6.10;;;8.80;99.20;;;;;;5030568;28;20185;-89
2023/04/16 07:37:01;;;;;;;11.30;5.40;;;8.80;98.70;;;;;;5032735;28;20181;-87
2023/04/16 07:39:30;;;;;;;7.83;4.60;;;8.90;98.60;;;;;;5040063;28;20174;-87
2023/04/16 07:41:55;;;;;;;9.57;5.47;;;8.80;98.00;;;;;;5021798;28;20216;-89
2023/04/16 07:44:23;;;;;;;8.50;5.33;;;8.90;99.30;;;;;;5024181;28;20174;-88
2023/04/16 07:46:51;;;;;;;8.73;5.30;;;9.00;99.00;;;;;;5038924;28;20617;-87
2023/04/16 07:49:21;;;;;;;8.23;4.60;;;9.10;98.80;;;;;;5022904;28;20212;-88
2023/04/16 07:51:50;;;;;;;10.67;5.07;;;9.10;97.30;;;;;;5023607;28;20201;-87
2023/04/16 07:54:23;;;;;;;8.83;4.43;;;9.20;96.30;;;;;;4989044;28;20201;-88
2023/04/16 07:56:51;;;;;;;11.73;5.33;;;9.10;95.80;;;;;;5005273;28;20224;-89
2023/04/16 07:59:18;;;;;;;10.83;5.87;;;9.10;96.10;;;;;;5025423;28;20173;-90
2023/04/16 08:01:55;;;;;;;11.53;5.83;;;9.10;95.00;;;;;;5039920;28;20201;-88
2023/04/16 08:04:40;;;;;;;13.23;7.27;;;9.10;95.40;;;;;;5020468;28;20695;-87
2023/04/16 08:07:12;;;;;;;15.90;7.80;;;9.20;96.50;;;;;;5039778;28;20212;-88
2023/04/16 08:09:48;;;;;;;12.70;7.17;;;9.20;95.30;;;;;;5022890;28;20284;-89
2023/04/16 08:12:15;;;;;;;18.40;7.90;;;9.20;95.80;;;;;;5024370;28;20181;-89
2023/04/16 08:14:41;;;;;;;13.53;8.13;;;9.10;97.90;;;;;;5021898;28;20684;-88
2023/04/16 08:17:06;;;;;;;13.60;8.07;;;9.00;99.70;;;;;;5023085;28;20197;-89
2023/04/16 08:19:33;;;;;;;15.67;8.53;;;9.10;99.90;;;;;;5028289;28;20650;-87
2023/04/16 08:22:02;;;;;;;15.47;8.60;;;9.10;99.90;;;;;;5021352;28;20224;-86
2023/04/16 08:24:28;;;;;;;11.90;8.07;;;9.20;99.90;;;;;;5038277;28;20189;-87
2023/04/16 08:26:57;;;;;;;14.57;8.67;;;9.10;99.90;;;;;;5036433;28;20200;-87
2023/04/16 08:29:25;;;;;;;15.63;8.90;;;9.10;99.90;;;;;;5040431;28;20240;-87
2023/04/16 08:32:13;;;;;;;19.10;9.67;;;9.10;99.90;;;;;;5039795;28;20268;-89
2023/04/16 08:34:54;;;;;;;14.20;8.10;;;9.20;99.90;;;;;;5039959;28;20162;-87
2023/04/16 08:37:38;;;;;;;12.27;7.63;;;9.00;99.90;;;;;;5035576;28;20281;-88
2023/04/16 08:40:14;;;;;;;12.73;8.63;;;9.10;99.90;;;;;;5033550;28;20245;-88
2023/04/16 08:42:44;;;;;;;17.40;9.20;;;9.20;99.90;;;;;;5013299;28;20189;-89
2023/04/16 08:45:16;;;;;;;15.07;8.33;;;8.90;99.90;;;;;;5030805;28;20200;-88
2023/04/16 08:47:48;;;;;;;14.30;8.93;;;9.00;99.90;;;;;;5017223;28;20224;-88
2023/04/16 08:50:32;;;;;;;16.47;9.20;;;9.00;99.90;;;;;;5017525;28;20194;-89
2023/04/16 08:53:14;;;;;;;14.47;9.57;;;9.00;99.90;;;;;;5029172;28;20182;-89
2023/04/16 08:55:46;;;;;;;15.37;8.80;;;9.00;99.90;;;;;;5035629;28;20234;-88
2023/04/16 08:58:21;;;;;;;14.93;9.20;;;9.00;99.90;;;;;;5034521;28;20253;-88
2023/04/16 09:00:48;;;;;;;15.67;9.37;;;9.00;99.90;;;;;;5025421;28;20641;-88
2023/04/16 09:03:20;;;;;;;17.57;9.70;;;9.00;99.90;;;;;;5026582;28;20190;-87
2023/04/16 09:05:46;;;;;;;16.80;9.83;;;9.00;99.90;;;;;;5011720;28;20190;-87
2023/04/16 09:08:12;;;;;;;15.73;9.57;;;9.10;99.90;;;;;;5009807;28;20218;-87
2023/04/16 09:10:38;;;;;;;16.43;9.57;;;9.10;99.90;;;;;;5016241;28;20224;-87
2023/04/16 09:13:03;;;;;;;20.37;9.83;;;9.00;99.90;;;;;;5021573;28;20194;-90
2023/04/16 09:15:34;;;;;;;18.80;10.20;;;9.10;99.90;;;;;;5028089;28;20221;-88
2023/04/16 09:18:00;;;;;;;17.80;10.20;;;9.10;99.90;;;;;;5028121;28;20210;-86
2023/04/16 09:20:26;;;;;;;14.73;10.30;;;9.20;99.90;;;;;;5028629;28;20189;-88
2023/04/16 09:22:52;;;;;;;13.27;9.30;;;9.20;99.90;;;;;;5027066;28;20190;-91
2023/04/16 09:25:21;;;;;;;16.97;10.03;;;9.30;99.90;;;;;;5010044;28;20186;-88
2023/04/16 09:27:51;;;;;;;16.53;9.93;;;9.30;99.90;;;;;;5007987;28;20297;-89
2023/04/16 09:30:23;;;;;;;12.20;9.63;;;9.30;99.90;;;;;;5008178;28;20186;-88
2023/04/16 09:32:52;;;;;;;13.30;8.97;;;9.30;99.90;;;;;;5026749;28;20177;-89
2023/04/16 09:35:26;;;;;;;14.93;9.77;;;9.40;99.90;;;;;;5048003;28;20256;-88
2023/04/16 09:37:56;;;;;;;15.70;9.40;;;9.40;99.90;;;;;;5024311;28;20225;-88
2023/04/16 09:41:34;;;;;;;13.80;9.67;;;9.30;99.90;;;;;;5026164;28;20673;-89
2023/04/16 09:44:54;;;;;;;17.83;8.63;;;9.30;99.90;;;;;;5040858;28;20185;-92
2023/04/16 09:47:44;;;;;;;15.60;9.47;;;9.30;99.90;;;;;;5052476;28;20201;-91
2023/04/16 09:50:18;;;;;;;14.60;9.10;;;9.30;99.90;;;;;;5029243;28;20194;-89
2023/04/16 09:52:47;;;;;;;12.93;8.77;;;9.40;99.90;;;;;;5009630;28;20182;-89
2023/04/16 09:55:14;;;;;;;15.33;8.63;;;9.40;99.90;;;;;;5020989;28;20211;-87
2023/04/16 09:57:40;;;;;;;13.67;8.03;;;9.40;99.90;;;;;;5026331;28;20181;-89
2023/04/16 10:00:30;;;;;;;12.83;9.33;;;9.30;99.90;;;;;;5029727;28;20190;-91
2023/04/16 10:03:09;;;;;;;11.10;8.23;;;9.30;99.90;;;;;;5029090;28;20201;-89
2023/04/16 10:05:35;;;;;;;15.20;8.70;;;9.50;99.90;;;;;;5043330;28;20193;-89
2023/04/16 10:08:21;;;;;;;11.47;8.30;;;9.50;99.90;;;;;;5040444;28;20229;-90
2023/04/16 10:10:47;;;;;;;15.20;9.20;;;9.60;99.90;;;;;;5027450;28;20190;-89
2023/04/16 10:13:18;;;;;;;17.67;9.17;;;9.60;99.90;;;;;;5016622;28;20199;-88
2023/04/16 10:16:06;;;;;;;;;;;;;;;;;;;;;
2023/04/16 10:18:35;;;;;;;13.40;8.37;;;9.60;99.90;;;;;;5038003;28;20186;-91
2023/04/16 10:21:03;;;;;;;12.67;8.57;;;9.70;99.90;;;;;;5014949;28;20182;-92
2023/04/16 10:23:31;;;;;;;14.43;8.43;;;9.60;99.90;;;;;;5025310;28;20269;-92
2023/04/16 10:25:59;;;;;;;11.53;7.97;;;9.70;99.90;;;;;;5019192;28;20182;-91
2023/04/16 10:28:31;;;;;;;15.47;8.23;;;9.70;99.90;;;;;;5023135;28;20206;-92
2023/04/16 10:31:01;;;;;;;11.23;7.70;;;9.60;99.90;;;;;;5019014;28;20182;-94
2023/04/16 10:33:32;;;;;;;16.43;8.50;;;9.60;99.90;;;;;;5036105;28;20209;-91
2023/04/16 10:36:25;;;;;;;12.43;9.00;;;9.50;99.90;;;;;;5042103;28;20212;-92
2023/04/16 10:39:01;;;;;;;11.43;7.93;;;9.60;99.90;;;;;;5091090;23;20249;-92
2023/04/16 10:41:46;;;;;;;10.27;7.83;;;9.60;99.90;;;;;;5034828;28;20190;-93
2023/04/16 10:44:12;;;;;;;13.50;7.40;;;9.50;99.90;;;;;;5031538;28;20202;-92
2023/04/16 10:46:58;;;;;;;13.10;8.03;;;9.50;99.90;;;;;;5036396;28;20165;-91
2023/04/16 10:49:38;;;;;;;9.93;6.60;;;9.50;99.90;;;;;;5046790;28;20289;-92
2023/04/16 10:52:10;;;;;;;12.77;8.13;;;9.50;99.90;;;;;;5055111;28;20756;-90
2023/04/16 10:54:38;;;;;;;10.97;7.80;;;9.50;99.90;;;;;;5051044;28;20177;-89
2023/04/16 10:57:20;;;;;;;13.33;7.90;;;9.60;99.90;;;;;;5053516;28;20190;-91
2023/04/16 10:59:48;;;;;;;14.23;7.60;;;9.50;99.90;;;;;;5015160;28;20263;-88
2023/04/16 11:02:20;;;;;;;15.27;9.20;;;9.60;99.90;;;;;;5016363;28;20205;-88
2023/04/16 11:04:48;;;;;;;13.70;7.73;;;9.70;99.90;;;;;;5042441;28;20181;-89
2023/04/16 11:07:46;;;;;;;14.10;8.23;;;9.80;99.90;;;;;;5058152;28;20186;-87
2023/04/16 11:10:12;;;;;;;15.40;8.80;;;9.90;99.90;;;;;;5020348;28;20276;-90
2023/04/16 11:12:58;;;;;;;15.57;8.93;;;9.80;99.90;;;;;;5034740;28;20174;-92
2023/04/16 11:15:32;;;;;;;12.13;8.57;;;9.90;99.90;;;;;;5052121;28;20208;-93
2023/04/16 11:17:59;;;;;;;14.57;8.83;;;9.80;99.90;;;;;;5047676;28;20212;-90
2023/04/16 11:20:37;;;;;;;16.83;10.00;;;9.90;99.90;;;;;;5048530;28;20196;-91
2023/04/16 11:23:12;;;;;;;12.90;8.90;;;9.80;99.90;;;;;;5059013;28;20220;-91
2023/04/16 11:25:38;;;;;;;13.63;9.00;;;9.90;99.90;;;;;;5056439;28;20208;-90
2023/04/16 11:28:08;;;;;;;14.13;8.70;;;9.90;99.90;;;;;;5034304;28;20229;-92
2023/04/16 11:30:36;;;;;;;12.87;8.43;;;10.10;99.90;;;;;;5038990;28;20200;-91
2023/04/16 11:33:03;;;;;;;10.33;7.17;;;10.00;99.00;;;;;;5029309;28;20189;-88
2023/04/16 11:35:30;;;;;;;15.23;8.37;;;9.90;98.70;;;;;;5050466;28;20185;-90
2023/04/16 11:37:56;;;;;;;10.57;7.60;;;9.90;99.10;;;;;;5041764;28;20194;-88
2023/04/16 11:40:23;;;;;;;12.47;7.53;;;9.80;98.20;;;;;;5061934;28;20189;-90
2023/04/16 11:42:48;;;;;;;14.77;8.33;;;9.90;98.30;;;;;;5050770;28;20231;-90
2023/04/16 11:45:18;;;;;;;14.03;9.63;;;9.80;99.10;;;;;;5048158;28;20544;-90
2023/04/16 11:47:50;;;;;;;11.93;8.37;;;9.70;99.90;;;;;;5046467;28;20202;-89
2023/04/16 11:50:27;;;;;;;13.10;8.90;;;9.70;99.90;;;;;;5050431;28;20189;-89
2023/04/16 11:52:55;;;;;;;17.77;8.90;;;9.80;99.90;;;;;;5038938;28;20192;-88
2023/04/16 11:55:22;;;;;;;14.20;8.33;;;9.90;99.90;;;;;;5038177;28;20522;-88
2023/04/16 11:57:49;;;;;;;12.20;8.23;;;9.90;99.90;;;;;;5045390;28;20669;-88
2023/04/16 12:00:15;;;;;;;13.27;9.43;;;10.00;99.60;;;;;;5046835;28;20712;-88
2023/04/16 12:02:50;;;;;;;12.83;9.33;;;9.90;99.90;;;;;;5052359;28;20205;-88
2023/04/16 12:05:27;;;;;;;16.00;10.70;;;10.10;99.90;;;;;;5055927;28;20248;-90
2023/04/16 12:07:56;;;;;;;19.47;9.93;;;10.00;99.90;;;;;;5059023;28;20204;-89
2023/04/16 12:10:33;;;;;;;;;;;;;;;;;;;;;
2023/04/16 12:13:19;;;;;;;17.10;11.43;;;10.00;99.90;;;;;;5067272;28;20268;-84
2023/04/16 12:15:49;;;;;;;15.80;10.47;;;10.10;99.90;;;;;;5043492;28;20209;-87
2023/04/16 12:18:36;;;;;;;15.00;11.00;;;10.10;99.20;;;;;;5083594;28;20187;-87
2023/04/16 12:21:04;;;;;;;15.07;10.20;;;10.10;99.90;;;;;;5068078;28;20172;-90
2023/04/16 12:23:32;;;;;;;15.73;11.07;;;10.00;99.90;;;;;;5065002;28;20173;-87
2023/04/16 12:26:09;;;;;;;16.00;9.90;;;10.10;99.90;;;;;;5054049;28;20211;-88
2023/04/16 12:28:37;;;;;;;13.53;9.40;;;10.10;99.50;;;;;;5059823;28;20253;-88
2023/04/16 12:31:03;;;;;;;16.30;9.23;;;10.10;98.90;;;;;;5046729;28;20638;-87
2023/04/16 12:33:30;;;;;;;15.20;8.63;;;10.30;98.20;;;;;;5045491;28;20216;-86
2023/04/16 12:35:56;;;;;;;18.83;9.67;;;10.20;98.30;;;;;;5057826;28;20197;-88
2023/04/16 12:38:24;;;;;;;12.57;9.27;;;10.30;99.50;;;;;;5034906;28;20188;-88
2023/04/16 12:40:50;;;;;;;16.23;10.77;;;10.00;99.80;;;;;;5049132;28;20189;-88
2023/04/16 12:43:17;;;;;;;14.53;10.30;;;10.00;99.90;;;;;;5062817;28;20203;-87
2023/04/16 12:45:42;;;;;;;15.30;8.97;;;10.00;99.90;;;;;;5067363;28;20161;-88
2023/04/16 12:48:09;;;;;;;16.90;10.30;;;10.00;99.90;;;;;;5046632;28;20242;-87
2023/04/16 12:50:38;;;;;;;13.77;11.17;;;10.00;99.90;;;;;;5050722;28;20406;-87
2023/04/16 12:53:04;;;;;;;13.50;10.53;;;10.10;99.90;;;;;;5022660;28;20207;-88
2023/04/16 12:55:39;;;;;;;16.43;10.47;;;10.10;99.90;;;;;;5043648;28;20185;-87
2023/04/16 12:58:07;;;;;;;15.67;10.20;;;10.20;99.90;;;;;;5044119;28;20223;-89
2023/04/16 13:00:32;;;;;;;15.13;10.33;;;10.10;99.90;;;;;;5045777;28;20192;-86
2023/04/16 13:03:00;;;;;;;16.53;10.27;;;10.20;99.90;;;;;;5041782;28;20305;-87
2023/04/16 13:05:26;;;;;;;16.30;11.47;;;10.00;99.90;;;;;;5044000;28;20184;-87